sensor_id;sensor_type;location;lat;lon;timestamp;pressure;altitude;pressure_sealevel;temperature;humidity
36234;BME280;43467;50.890;5.982;2023-03-04T00:01:11;101188.59;;;5.40;64.06
36234;BME280;43467;50.890;5.982;2023-03-04T00:03:36;101186.88;;;5.38;64.00
36234;BME280;43467;50.890;5.982;2023-03-04T00:06:02;101190.44;;;5.29;64.49
36234;BME280;43467;50.890;5.982;2023-03-04T00:08:27;101194.69;;;5.44;64.23
36234;BME280;43467;50.890;5.982;2023-03-04T00:10:53;101191.19;;;5.43;63.99
36234;BME280;43467;50.890;5.982;2023-03-04T00:13:18;101187.00;;;5.24;64.24
36234;BME280;43467;50.890;5.982;2023-03-04T00:15:46;101194.78;;;5.33;64.36
36234;BME280;43467;50.890;5.982;2023-03-04T00:18:11;101183.44;;;5.27;64.40
36234;BME280;43467;50.890;5.982;2023-03-04T00:20:37;101190.44;;;5.28;64.39
36234;BME280;43467;50.890;5.982;2023-03-04T00:23:02;101185.19;;;5.26;64.31
36234;BME280;43467;50.890;5.982;2023-03-04T00:25:27;101186.03;;;5.33;64.42
36234;BME280;43467;50.890;5.982;2023-03-04T00:27:53;101189.50;;;5.35;64.20
36234;BME280;43467;50.890;5.982;2023-03-04T00:30:18;101183.44;;;5.30;64.20
36234;BME280;43467;50.890;5.982;2023-03-04T00:32:44;101181.69;;;5.27;64.30
36234;BME280;43467;50.890;5.982;2023-03-04T00:35:09;101188.47;;;5.51;64.28
36234;BME280;43467;50.890;5.982;2023-03-04T00:37:34;101185.09;;;5.38;63.96
36234;BME280;43467;50.890;5.982;2023-03-04T00:40:00;101175.56;;;5.30;64.44
36234;BME280;43467;50.890;5.982;2023-03-04T00:42:25;101176.47;;;5.26;64.64
36234;BME280;43467;50.890;5.982;2023-03-04T00:44:51;101173.09;;;5.11;64.76
36234;BME280;43467;50.890;5.982;2023-03-04T00:47:16;101172.19;;;5.17;64.83
36234;BME280;43467;50.890;5.982;2023-03-04T00:49:42;101172.13;;;5.23;64.53
36234;BME280;43467;50.890;5.982;2023-03-04T00:52:07;101179.09;;;5.26;64.69
36234;BME280;43467;50.890;5.982;2023-03-04T00:54:33;101174.69;;;5.28;64.29
36234;BME280;43467;50.890;5.982;2023-03-04T00:56:58;101166.78;;;5.32;64.60
36234;BME280;43467;50.890;5.982;2023-03-04T00:59:24;101169.34;;;5.40;64.11
36234;BME280;43467;50.890;5.982;2023-03-04T01:01:49;101172.66;;;5.55;64.49
36234;BME280;43467;50.890;5.982;2023-03-04T01:04:15;101173.75;;;5.38;64.35
36234;BME280;43467;50.890;5.982;2023-03-04T01:06:40;101170.97;;;5.53;64.33
36234;BME280;43467;50.890;5.982;2023-03-04T01:09:05;101162.81;;;5.77;63.54
36234;BME280;43467;50.890;5.982;2023-03-04T01:11:32;101168.19;;;5.65;63.62
36234;BME280;43467;50.890;5.982;2023-03-04T01:13:58;101168.38;;;5.50;63.93
36234;BME280;43467;50.890;5.982;2023-03-04T01:16:23;101157.81;;;5.51;64.48
36234;BME280;43467;50.890;5.982;2023-03-04T01:18:49;101150.78;;;5.56;63.75
36234;BME280;43467;50.890;5.982;2023-03-04T01:21:14;101157.88;;;5.47;64.12
36234;BME280;43467;50.890;5.982;2023-03-04T01:23:39;101155.16;;;5.56;64.14
36234;BME280;43467;50.890;5.982;2023-03-04T01:26:05;101144.69;;;5.53;63.88
36234;BME280;43467;50.890;5.982;2023-03-04T01:28:30;101145.47;;;5.59;63.83
36234;BME280;43467;50.890;5.982;2023-03-04T01:31:00;101149.72;;;5.71;63.97
36234;BME280;43467;50.890;5.982;2023-03-04T01:33:26;101138.44;;;5.63;63.66
36234;BME280;43467;50.890;5.982;2023-03-04T01:35:51;101141.19;;;5.51;64.38
36234;BME280;43467;50.890;5.982;2023-03-04T01:38:17;101144.66;;;5.56;64.38
36234;BME280;43467;50.890;5.982;2023-03-04T01:40:42;101154.28;;;5.57;64.24
36234;BME280;43467;50.890;5.982;2023-03-04T01:43:22;101140.13;;;5.67;64.21
36234;BME280;43467;50.890;5.982;2023-03-04T01:45:50;101138.22;;;5.83;63.97
36234;BME280;43467;50.890;5.982;2023-03-04T01:48:20;101134.63;;;5.93;63.35
36234;BME280;43467;50.890;5.982;2023-03-04T01:50:46;101135.34;;;6.04;62.87
36234;BME280;43467;50.890;5.982;2023-03-04T01:53:30;101139.94;;;5.88;63.17
36234;BME280;43467;50.890;5.982;2023-03-04T01:55:59;101120.69;;;5.86;63.40
36234;BME280;43467;50.890;5.982;2023-03-04T01:58:28;101130.28;;;5.90;63.07
36234;BME280;43467;50.890;5.982;2023-03-04T02:00:54;101123.22;;;5.92;63.40
36234;BME280;43467;50.890;5.982;2023-03-04T02:03:20;101121.59;;;5.82;63.26
36234;BME280;43467;50.890;5.982;2023-03-04T02:05:48;101128.34;;;6.04;63.28
36234;BME280;43467;50.890;5.982;2023-03-04T02:08:15;101117.59;;;6.23;62.63
36234;BME280;43467;50.890;5.982;2023-03-04T02:10:43;101115.09;;;6.12;62.10
36234;BME280;43467;50.890;5.982;2023-03-04T02:13:09;101117.81;;;6.06;62.70
36234;BME280;43467;50.890;5.982;2023-03-04T02:15:35;101107.47;;;5.92;62.70
36234;BME280;43467;50.890;5.982;2023-03-04T02:18:00;101085.69;;;5.83;63.06
36234;BME280;43467;50.890;5.982;2023-03-04T02:23:05;101105.69;;;5.94;63.09
36234;BME280;43467;50.890;5.982;2023-03-04T02:25:38;101104.00;;;5.87;63.26
36234;BME280;43467;50.890;5.982;2023-03-04T02:28:06;101085.59;;;5.90;63.18
36234;BME280;43467;50.890;5.982;2023-03-04T02:30:32;101097.56;;;6.13;62.55
36234;BME280;43467;50.890;5.982;2023-03-04T02:32:57;101094.94;;;6.13;62.55
36234;BME280;43467;50.890;5.982;2023-03-04T02:35:23;101091.59;;;6.00;62.66
36234;BME280;43467;50.890;5.982;2023-03-04T02:37:49;101090.72;;;6.01;62.78
36234;BME280;43467;50.890;5.982;2023-03-04T02:40:27;101094.09;;;6.09;62.56
36234;BME280;43467;50.890;5.982;2023-03-04T02:42:53;101091.53;;;6.04;62.93
36234;BME280;43467;50.890;5.982;2023-03-04T02:45:37;101093.34;;;5.99;62.93
36234;BME280;43467;50.890;5.982;2023-03-04T02:48:03;101095.97;;;6.01;62.91
36234;BME280;43467;50.890;5.982;2023-03-04T02:50:33;101096.84;;;6.01;62.96
36234;BME280;43467;50.890;5.982;2023-03-04T02:52:59;101090.69;;;6.02;62.59
36234;BME280;43467;50.890;5.982;2023-03-04T02:55:24;101092.41;;;6.03;63.04
36234;BME280;43467;50.890;5.982;2023-03-04T02:57:50;101094.22;;;6.01;62.91
36234;BME280;43467;50.890;5.982;2023-03-04T03:00:15;101078.66;;;5.82;63.46
36234;BME280;43467;50.890;5.982;2023-03-04T03:02:40;101076.69;;;6.00;63.08
36234;BME280;43467;50.890;5.982;2023-03-04T03:05:06;101085.97;;;6.26;62.67
36234;BME280;43467;50.890;5.982;2023-03-04T03:07:32;101085.88;;;6.32;62.46
36234;BME280;43467;50.890;5.982;2023-03-04T03:09:59;101071.19;;;6.17;62.45
36234;BME280;43467;50.890;5.982;2023-03-04T03:12:24;101075.63;;;6.14;62.54
36234;BME280;43467;50.890;5.982;2023-03-04T03:14:50;101075.69;;;6.11;63.09
36234;BME280;43467;50.890;5.982;2023-03-04T03:17:15;101073.06;;;6.11;62.80
36234;BME280;43467;50.890;5.982;2023-03-04T03:19:41;101074.75;;;6.15;62.78
36234;BME280;43467;50.890;5.982;2023-03-04T03:22:06;101067.00;;;6.05;62.82
36234;BME280;43467;50.890;5.982;2023-03-04T03:24:31;101069.56;;;6.10;62.87
36234;BME280;43467;50.890;5.982;2023-03-04T03:26:57;101066.81;;;6.16;63.00
36234;BME280;43467;50.890;5.982;2023-03-04T03:29:22;101062.47;;;6.15;62.77
36234;BME280;43467;50.890;5.982;2023-03-04T03:31:48;101058.91;;;6.19;62.49
36234;BME280;43467;50.890;5.982;2023-03-04T03:34:13;101058.88;;;6.21;62.70
36234;BME280;43467;50.890;5.982;2023-03-04T03:36:38;101060.44;;;6.32;62.37
36234;BME280;43467;50.890;5.982;2023-03-04T03:39:04;101050.09;;;6.23;62.64
36234;BME280;43467;50.890;5.982;2023-03-04T03:41:29;101063.25;;;6.23;62.69
36234;BME280;43467;50.890;5.982;2023-03-04T03:43:55;101055.31;;;6.25;62.54
36234;BME280;43467;50.890;5.982;2023-03-04T03:46:21;101052.84;;;6.13;62.96
36234;BME280;43467;50.890;5.982;2023-03-04T03:48:46;101058.81;;;6.24;62.44
36234;BME280;43467;50.890;5.982;2023-03-04T03:51:12;101052.81;;;6.16;62.72
36234;BME280;43467;50.890;5.982;2023-03-04T03:53:37;101060.75;;;6.14;62.95
36234;BME280;43467;50.890;5.982;2023-03-04T03:56:03;101060.75;;;6.14;63.06
36234;BME280;43467;50.890;5.982;2023-03-04T03:58:28;101058.78;;;6.27;62.67
36234;BME280;43467;50.890;5.982;2023-03-04T04:00:54;101054.28;;;6.35;62.48
36234;BME280;43467;50.890;5.982;2023-03-04T04:03:19;101060.66;;;6.19;62.34
36234;BME280;43467;50.890;5.982;2023-03-04T04:05:45;101053.28;;;5.79;63.50
36234;BME280;43467;50.890;5.982;2023-03-04T04:08:15;101048.28;;;5.59;64.64
36234;BME280;43467;50.890;5.982;2023-03-04T04:10:41;101061.97;;;5.86;64.56
36234;BME280;43467;50.890;5.982;2023-03-04T04:13:06;101065.19;;;6.11;63.38
36234;BME280;43467;50.890;5.982;2023-03-04T04:15:32;101060.69;;;6.16;63.41
36234;BME280;43467;50.890;5.982;2023-03-04T04:17:57;101059.00;;;6.13;63.34
36234;BME280;43467;50.890;5.982;2023-03-04T04:20:23;101063.50;;;6.05;63.31
36234;BME280;43467;50.890;5.982;2023-03-04T04:22:49;101061.81;;;5.99;63.79
36234;BME280;43467;50.890;5.982;2023-03-04T04:25:14;101046.84;;;6.06;63.34
36234;BME280;43467;50.890;5.982;2023-03-04T04:27:40;101051.28;;;6.02;63.54
36234;BME280;43467;50.890;5.982;2023-03-04T04:30:06;101049.53;;;6.01;63.66
36234;BME280;43467;50.890;5.982;2023-03-04T04:32:32;101055.41;;;6.19;63.24
36234;BME280;43467;50.890;5.982;2023-03-04T04:34:58;101059.81;;;6.17;63.08
36234;BME280;43467;50.890;5.982;2023-03-04T04:37:23;101055.38;;;6.20;63.17
36234;BME280;43467;50.890;5.982;2023-03-04T04:39:48;101051.09;;;6.13;63.29
36234;BME280;43467;50.890;5.982;2023-03-04T04:42:16;101055.28;;;6.26;63.18
36234;BME280;43467;50.890;5.982;2023-03-04T04:44:42;101063.06;;;6.34;62.92
36234;BME280;43467;50.890;5.982;2023-03-04T04:47:08;101051.84;;;6.23;62.80
36234;BME280;43467;50.890;5.982;2023-03-04T04:49:34;101055.25;;;6.29;62.82
36234;BME280;43467;50.890;5.982;2023-03-04T04:51:59;101063.31;;;6.19;63.17
36234;BME280;43467;50.890;5.982;2023-03-04T04:54:25;101062.25;;;6.30;62.88
36234;BME280;43467;50.890;5.982;2023-03-04T04:56:51;101060.38;;;6.38;62.72
36234;BME280;43467;50.890;5.982;2023-03-04T04:59:16;101068.38;;;6.31;62.88
36234;BME280;43467;50.890;5.982;2023-03-04T05:01:41;101067.50;;;6.30;62.73
36234;BME280;43467;50.890;5.982;2023-03-04T05:04:07;101070.09;;;6.33;63.00
36234;BME280;43467;50.890;5.982;2023-03-04T05:06:32;101074.63;;;6.22;63.21
36234;BME280;43467;50.890;5.982;2023-03-04T05:08:58;101067.59;;;6.24;63.07
36234;BME280;43467;50.890;5.982;2023-03-04T05:11:23;101075.47;;;6.26;63.14
36234;BME280;43467;50.890;5.982;2023-03-04T05:13:49;101076.41;;;6.20;63.43
36234;BME280;43467;50.890;5.982;2023-03-04T05:16:15;101071.94;;;6.27;63.41
36234;BME280;43467;50.890;5.982;2023-03-04T05:18:41;101075.47;;;6.26;63.70
36234;BME280;43467;50.890;5.982;2023-03-04T05:21:07;101073.81;;;6.19;63.81
36234;BME280;43467;50.890;5.982;2023-03-04T05:23:34;101066.72;;;6.24;63.45
36234;BME280;43467;50.890;5.982;2023-03-04T05:26:01;101068.44;;;6.25;63.40
36234;BME280;43467;50.890;5.982;2023-03-04T05:28:27;101063.25;;;6.23;63.63
36234;BME280;43467;50.890;5.982;2023-03-04T05:30:52;101063.31;;;6.17;63.92
36234;BME280;43467;50.890;5.982;2023-03-04T05:33:18;101069.34;;;6.24;63.66
36234;BME280;43467;50.890;5.982;2023-03-04T05:35:44;101067.66;;;6.20;63.75
36234;BME280;43467;50.890;5.982;2023-03-04T05:38:13;101075.47;;;6.26;63.82
36234;BME280;43467;50.890;5.982;2023-03-04T05:40:40;101069.28;;;6.28;63.77
36234;BME280;43467;50.890;5.982;2023-03-04T05:43:06;101073.47;;;6.40;63.54
36234;BME280;43467;50.890;5.982;2023-03-04T05:45:32;101077.66;;;6.53;62.97
36234;BME280;43467;50.890;5.982;2023-03-04T05:47:58;101065.50;;;6.46;63.06
36234;BME280;43467;50.890;5.982;2023-03-04T05:50:23;101079.59;;;6.40;63.42
36234;BME280;43467;50.890;5.982;2023-03-04T05:52:49;101077.97;;;6.35;63.67
36234;BME280;43467;50.890;5.982;2023-03-04T05:55:15;101077.84;;;6.42;63.73
36234;BME280;43467;50.890;5.982;2023-03-04T05:57:41;101081.22;;;6.50;63.36
36234;BME280;43467;50.890;5.982;2023-03-04T06:00:07;101082.16;;;6.45;63.26
36234;BME280;43467;50.890;5.982;2023-03-04T06:02:37;101077.97;;;6.35;63.98
36234;BME280;43467;50.890;5.982;2023-03-04T06:05:03;101068.41;;;6.28;64.15
36234;BME280;43467;50.890;5.982;2023-03-04T06:07:29;101073.66;;;6.28;64.40
36234;BME280;43467;50.890;5.982;2023-03-04T06:09:55;101074.34;;;6.40;63.77
36234;BME280;43467;50.890;5.982;2023-03-04T06:12:20;101074.09;;;6.57;63.44
36234;BME280;43467;50.890;5.982;2023-03-04T06:14:45;101078.41;;;6.63;63.50
36234;BME280;43467;50.890;5.982;2023-03-04T06:17:11;101076.44;;;6.75;63.20
36234;BME280;43467;50.890;5.982;2023-03-04T06:19:36;101080.91;;;6.69;63.43
36234;BME280;43467;50.890;5.982;2023-03-04T06:22:05;101081.38;;;6.40;64.33
36234;BME280;43467;50.890;5.982;2023-03-04T06:24:30;101077.34;;;6.18;64.50
36234;BME280;43467;50.890;5.982;2023-03-04T06:26:55;101083.19;;;6.36;64.74
36234;BME280;43467;50.890;5.982;2023-03-04T06:29:21;101086.91;;;6.22;64.98
36234;BME280;43467;50.890;5.982;2023-03-04T06:31:46;101099.19;;;6.21;65.26
36234;BME280;43467;50.890;5.982;2023-03-04T06:34:12;101095.56;;;6.31;64.68
36234;BME280;43467;50.890;5.982;2023-03-04T06:36:37;101092.00;;;6.34;64.83
36234;BME280;43467;50.890;5.982;2023-03-04T06:39:04;101096.31;;;6.38;64.63
36234;BME280;43467;50.890;5.982;2023-03-04T06:41:29;101106.72;;;6.47;64.35
36234;BME280;43467;50.890;5.982;2023-03-04T06:43:55;101094.31;;;6.53;64.57
36234;BME280;43467;50.890;5.982;2023-03-04T06:46:20;101097.00;;;6.52;64.62
36234;BME280;43467;50.890;5.982;2023-03-04T06:48:46;101103.88;;;6.59;64.52
36234;BME280;43467;50.890;5.982;2023-03-04T06:51:12;101098.75;;;6.51;64.93
36234;BME280;43467;50.890;5.982;2023-03-04T06:53:38;101111.03;;;6.49;65.44
36234;BME280;43467;50.890;5.982;2023-03-04T06:56:05;101101.56;;;6.39;65.57
36234;BME280;43467;50.890;5.982;2023-03-04T06:58:31;101109.34;;;6.45;65.59
36234;BME280;43467;50.890;5.982;2023-03-04T07:00:57;101110.09;;;6.55;65.22
36234;BME280;43467;50.890;5.982;2023-03-04T07:03:22;101112.69;;;6.57;65.26
36234;BME280;43467;50.890;5.982;2023-03-04T07:05:48;101106.47;;;6.62;65.16
36234;BME280;43467;50.890;5.982;2023-03-04T07:08:13;101116.13;;;6.62;65.18
36234;BME280;43467;50.890;5.982;2023-03-04T07:10:39;101094.44;;;6.46;65.34
36234;BME280;43467;50.890;5.982;2023-03-04T07:13:04;101123.94;;;6.66;65.22
36234;BME280;43467;50.890;5.982;2023-03-04T07:15:30;101122.13;;;6.71;64.89
36234;BME280;43467;50.890;5.982;2023-03-04T07:17:55;101116.03;;;6.68;65.43
36234;BME280;43467;50.890;5.982;2023-03-04T07:20:20;101127.41;;;6.70;65.24
36234;BME280;43467;50.890;5.982;2023-03-04T07:22:46;101117.88;;;6.63;64.69
36234;BME280;43467;50.890;5.982;2023-03-04T07:25:11;101129.16;;;6.69;64.59
36234;BME280;43467;50.890;5.982;2023-03-04T07:27:37;101127.38;;;6.71;64.83
36234;BME280;43467;50.890;5.982;2023-03-04T07:30:06;101124.16;;;6.52;65.25
36234;BME280;43467;50.890;5.982;2023-03-04T07:32:32;101126.03;;;6.44;65.41
36234;BME280;43467;50.890;5.982;2023-03-04T07:34:59;101125.00;;;6.53;65.58
36234;BME280;43467;50.890;5.982;2023-03-04T07:37:25;101127.13;;;6.30;66.07
36234;BME280;43467;50.890;5.982;2023-03-04T07:39:50;101122.78;;;6.27;66.46
36234;BME280;43467;50.890;5.982;2023-03-04T07:42:16;101141.25;;;6.21;66.56
36234;BME280;43467;50.890;5.982;2023-03-04T07:44:41;101139.41;;;6.29;66.48
36234;BME280;43467;50.890;5.982;2023-03-04T07:47:06;101136.00;;;6.20;67.01
36234;BME280;43467;50.890;5.982;2023-03-04T07:49:32;101138.56;;;6.27;66.46
36234;BME280;43467;50.890;5.982;2023-03-04T07:51:57;101149.88;;;6.32;66.66
36234;BME280;43467;50.890;5.982;2023-03-04T07:54:22;101135.06;;;6.24;66.70
36234;BME280;43467;50.890;5.982;2023-03-04T07:56:48;101137.53;;;6.39;66.22
36234;BME280;43467;50.890;5.982;2023-03-04T07:59:13;101146.34;;;6.35;66.32
36234;BME280;43467;50.890;5.982;2023-03-04T08:01:38;101128.06;;;6.24;66.38
36234;BME280;43467;50.890;5.982;2023-03-04T08:04:05;101139.31;;;6.35;65.62
36234;BME280;43467;50.890;5.982;2023-03-04T08:06:31;101143.56;;;6.44;65.54
36234;BME280;43467;50.890;5.982;2023-03-04T08:08:59;101146.03;;;6.56;65.33
36234;BME280;43467;50.890;5.982;2023-03-04T08:11:26;101145.13;;;6.57;64.65
36234;BME280;43467;50.890;5.982;2023-03-04T08:13:52;101146.75;;;6.67;64.52
36234;BME280;43467;50.890;5.982;2023-03-04T08:16:19;101151.06;;;6.70;64.31
36234;BME280;43467;50.890;5.982;2023-03-04T08:18:46;101149.31;;;6.70;63.64
36234;BME280;43467;50.890;5.982;2023-03-04T08:21:14;101153.59;;;6.77;63.70
36234;BME280;43467;50.890;5.982;2023-03-04T08:23:40;101150.13;;;6.74;63.81
36234;BME280;43467;50.890;5.982;2023-03-04T08:26:12;101151.75;;;6.84;63.61
36234;BME280;43467;50.890;5.982;2023-03-04T08:28:38;101154.19;;;6.94;63.28
36234;BME280;43467;50.890;5.982;2023-03-04T08:31:04;101159.44;;;6.96;63.00
36234;BME280;43467;50.890;5.982;2023-03-04T08:33:31;101162.97;;;6.95;62.96
36234;BME280;43467;50.890;5.982;2023-03-04T08:35:56;101162.09;;;6.94;63.08
36234;BME280;43467;50.890;5.982;2023-03-04T08:38:22;101162.22;;;6.88;63.20
36234;BME280;43467;50.890;5.982;2023-03-04T08:40:54;101168.50;;;6.78;63.59
36234;BME280;43467;50.890;5.982;2023-03-04T08:43:20;101166.00;;;6.69;64.27
36234;BME280;43467;50.890;5.982;2023-03-04T08:45:46;101166.91;;;6.67;64.86
36234;BME280;43467;50.890;5.982;2023-03-04T08:48:12;101166.69;;;6.82;64.72
36234;BME280;43467;50.890;5.982;2023-03-04T08:50:37;101171.69;;;6.98;64.45
36234;BME280;43467;50.890;5.982;2023-03-04T08:53:02;101175.19;;;6.99;64.63
36234;BME280;43467;50.890;5.982;2023-03-04T08:55:28;101175.19;;;6.97;64.56
36234;BME280;43467;50.890;5.982;2023-03-04T08:57:53;101177.88;;;6.96;64.73
36234;BME280;43467;50.890;5.982;2023-03-04T09:00:19;101169.06;;;6.97;65.05
36234;BME280;43467;50.890;5.982;2023-03-04T09:02:46;101175.19;;;6.99;65.19
36234;BME280;43467;50.890;5.982;2023-03-04T09:05:11;101172.50;;;7.02;65.21
36234;BME280;43467;50.890;5.982;2023-03-04T09:07:37;101172.94;;;6.73;66.42
36234;BME280;43467;50.890;5.982;2023-03-04T09:10:03;101180.84;;;6.75;66.57
36234;BME280;43467;50.890;5.982;2023-03-04T09:12:29;101182.50;;;6.80;66.36
36234;BME280;43467;50.890;5.982;2023-03-04T09:14:54;101167.75;;;6.70;67.09
36234;BME280;43467;50.890;5.982;2023-03-04T09:17:20;101180.88;;;6.72;67.32
36234;BME280;43467;50.890;5.982;2023-03-04T09:19:45;101175.50;;;6.79;67.37
36234;BME280;43467;50.890;5.982;2023-03-04T09:22:10;101170.00;;;6.93;67.11
36234;BME280;43467;50.890;5.982;2023-03-04T09:24:36;101170.13;;;6.85;67.70
36234;BME280;43467;50.890;5.982;2023-03-04T09:27:01;101171.00;;;6.87;67.49
36234;BME280;43467;50.890;5.982;2023-03-04T09:29:27;101173.69;;;6.81;67.76
36234;BME280;43467;50.890;5.982;2023-03-04T09:31:52;101167.75;;;6.69;68.19
36234;BME280;43467;50.890;5.982;2023-03-04T09:34:17;101158.03;;;6.75;67.89
36234;BME280;43467;50.890;5.982;2023-03-04T09:36:43;101167.53;;;6.84;67.23
36234;BME280;43467;50.890;5.982;2023-03-04T09:39:08;101163.91;;;6.89;67.01
36234;BME280;43467;50.890;5.982;2023-03-04T09:41:55;101170.91;;;6.92;67.36
36234;BME280;43467;50.890;5.982;2023-03-04T09:44:28;101157.16;;;6.73;68.26
36234;BME280;43467;50.890;5.982;2023-03-04T09:46:59;101158.91;;;6.74;68.43
36234;BME280;43467;50.890;5.982;2023-03-04T09:49:25;101151.19;;;6.62;68.74
36234;BME280;43467;50.890;5.982;2023-03-04T09:52:04;101160.03;;;6.60;68.90
36234;BME280;43467;50.890;5.982;2023-03-04T09:55:04;101150.53;;;6.48;69.26
36234;BME280;43467;50.890;5.982;2023-03-04T09:57:52;101152.84;;;6.69;68.26
36234;BME280;43467;50.890;5.982;2023-03-04T10:00:24;101136.28;;;6.61;68.67
36234;BME280;43467;50.890;5.982;2023-03-04T10:08:35;101151.50;;;6.97;67.31
36234;BME280;43467;50.890;5.982;2023-03-04T10:11:07;101156.63;;;7.05;66.15
36234;BME280;43467;50.890;5.982;2023-03-04T10:16:15;101150.94;;;7.31;65.95
36234;BME280;43467;50.890;5.982;2023-03-04T10:18:58;101154.38;;;7.34;66.06
36234;BME280;43467;50.890;5.982;2023-03-04T10:21:41;101150.78;;;7.40;66.34
36234;BME280;43467;50.890;5.982;2023-03-04T10:24:12;101138.78;;;7.22;65.79
36234;BME280;43467;50.890;5.982;2023-03-04T10:26:41;101146.22;;;7.50;65.35
36234;BME280;43467;50.890;5.982;2023-03-04T10:29:27;101139.31;;;7.42;65.43
36234;BME280;43467;50.890;5.982;2023-03-04T10:31:54;101144.78;;;7.32;65.54
36234;BME280;43467;50.890;5.982;2023-03-04T10:34:20;101138.84;;;7.67;64.53
36234;BME280;43467;50.890;5.982;2023-03-04T10:39:30;101129.00;;;7.76;64.04
36234;BME280;43467;50.890;5.982;2023-03-04T10:42:01;101133.84;;;7.98;63.39
36234;BME280;43467;50.890;5.982;2023-03-04T10:44:28;101126.75;;;8.00;63.44
36234;BME280;43467;50.890;5.982;2023-03-04T10:46:55;101130.94;;;7.67;63.97
36234;BME280;43467;50.890;5.982;2023-03-04T10:49:21;101128.44;;;7.61;64.47
36234;BME280;43467;50.890;5.982;2023-03-04T10:51:51;101146.97;;;7.56;64.81
36234;BME280;43467;50.890;5.982;2023-03-04T10:54:27;101137.22;;;7.60;64.81
36234;BME280;43467;50.890;5.982;2023-03-04T10:59:38;101141.78;;;7.50;65.23
36234;BME280;43467;50.890;5.982;2023-03-04T11:07:46;101138.88;;;7.65;65.33
36234;BME280;43467;50.890;5.982;2023-03-04T11:10:25;101123.78;;;7.73;65.09
36234;BME280;43467;50.890;5.982;2023-03-04T11:13:00;101127.38;;;7.69;65.54
36234;BME280;43467;50.890;5.982;2023-03-04T11:15:28;101125.50;;;7.74;65.68
36234;BME280;43467;50.890;5.982;2023-03-04T11:18:02;101124.78;;;7.68;65.37
36234;BME280;43467;50.890;5.982;2023-03-04T11:20:34;101126.44;;;7.73;65.32
36234;BME280;43467;50.890;5.982;2023-03-04T11:23:27;101115.56;;;7.88;64.36
36234;BME280;43467;50.890;5.982;2023-03-04T11:26:07;101117.06;;;8.00;63.54
36234;BME280;43467;50.890;5.982;2023-03-04T11:28:45;101122.97;;;8.13;63.93
36234;BME280;43467;50.890;5.982;2023-03-04T11:31:16;101096.59;;;8.13;63.48
36234;BME280;43467;50.890;5.982;2023-03-04T11:34:07;101101.66;;;8.22;62.93
36234;BME280;43467;50.890;5.982;2023-03-04T11:44:54;101093.50;;;7.92;63.54
36234;BME280;43467;50.890;5.982;2023-03-04T11:50:22;101093.31;;;8.02;62.82
36234;BME280;43467;50.890;5.982;2023-03-04T11:53:15;101084.56;;;8.00;62.37
36234;BME280;43467;50.890;5.982;2023-03-04T11:56:08;101084.44;;;8.06;62.54
36234;BME280;43467;50.890;5.982;2023-03-04T12:01:09;101081.56;;;8.16;62.34
36234;BME280;43467;50.890;5.982;2023-03-04T12:09:44;101088.88;;;8.04;62.90
36234;BME280;43467;50.890;5.982;2023-03-04T12:24:02;101051.50;;;8.23;62.76
36234;BME280;43467;50.890;5.982;2023-03-04T12:26:39;101041.00;;;8.22;63.02
36234;BME280;43467;50.890;5.982;2023-03-04T12:31:41;101043.47;;;8.31;62.62
36234;BME280;43467;50.890;5.982;2023-03-04T12:40:07;101033.75;;;7.91;63.54
36234;BME280;43467;50.890;5.982;2023-03-04T12:48:30;101022.88;;;7.67;64.30
36234;BME280;43467;50.890;5.982;2023-03-04T12:56:42;101016.19;;;7.51;64.62
36234;BME280;43467;50.890;5.982;2023-03-04T12:59:21;101012.66;;;7.52;64.45
36234;BME280;43467;50.890;5.982;2023-03-04T13:04:58;101010.53;;;7.69;64.27
36234;BME280;43467;50.890;5.982;2023-03-04T13:10:13;101012.56;;;7.96;63.37
36234;BME280;43467;50.890;5.982;2023-03-04T13:15:28;100992.50;;;7.90;63.87
36234;BME280;43467;50.890;5.982;2023-03-04T13:17:56;100996.66;;;7.99;63.89
36234;BME280;43467;50.890;5.982;2023-03-04T13:20:40;100991.25;;;8.07;62.97
36234;BME280;43467;50.890;5.982;2023-03-04T13:25:40;100996.28;;;8.16;63.12
36234;BME280;43467;50.890;5.982;2023-03-04T13:38:21;100980.44;;;8.16;63.10
36234;BME280;43467;50.890;5.982;2023-03-04T13:43:42;100980.13;;;8.31;62.79
36234;BME280;43467;50.890;5.982;2023-03-04T13:49:03;100967.06;;;8.23;62.94
36234;BME280;43467;50.890;5.982;2023-03-04T13:51:39;100967.25;;;8.16;63.44
36234;BME280;43467;50.890;5.982;2023-03-04T13:56:46;100975.69;;;8.31;62.98
36234;BME280;43467;50.890;5.982;2023-03-04T14:04:56;100968.97;;;8.18;63.98
36234;BME280;43467;50.890;5.982;2023-03-04T14:07:29;100959.03;;;8.28;64.12
36234;BME280;43467;50.890;5.982;2023-03-04T14:12:21;100946.56;;;8.36;64.05
36234;BME280;43467;50.890;5.982;2023-03-04T14:14:55;100928.75;;;8.44;64.00
36234;BME280;43467;50.890;5.982;2023-03-04T14:17:25;100940.56;;;8.31;64.41
36234;BME280;43467;50.890;5.982;2023-03-04T14:19:52;100934.34;;;7.95;65.18
36234;BME280;43467;50.890;5.982;2023-03-04T14:22:31;100944.75;;;8.03;65.29
36234;BME280;43467;50.890;5.982;2023-03-04T14:25:00;100941.88;;;8.12;65.28
36234;BME280;43467;50.890;5.982;2023-03-04T14:27:27;100935.97;;;8.02;65.88
36234;BME280;43467;50.890;5.982;2023-03-04T14:29:58;100941.38;;;7.96;66.12
36234;BME280;43467;50.890;5.982;2023-03-04T14:32:25;100927.25;;;7.99;66.10
36234;BME280;43467;50.890;5.982;2023-03-04T14:34:56;100919.69;;;8.20;65.34
36234;BME280;43467;50.890;5.982;2023-03-04T14:37:25;100932.66;;;8.31;65.10
36234;BME280;43467;50.890;5.982;2023-03-04T14:39:55;100931.25;;;8.15;65.49
36234;BME280;43467;50.890;5.982;2023-03-04T14:42:24;100906.91;;;8.04;65.36
36234;BME280;43467;50.890;5.982;2023-03-04T14:44:55;100917.78;;;8.25;65.31
36234;BME280;43467;50.890;5.982;2023-03-04T14:49:54;100923.06;;;8.25;65.52
36234;BME280;43467;50.890;5.982;2023-03-04T14:52:49;100911.72;;;8.22;65.62
36234;BME280;43467;50.890;5.982;2023-03-04T14:55:17;100902.78;;;8.27;65.19
36234;BME280;43467;50.890;5.982;2023-03-04T14:57:45;100901.38;;;8.14;65.86